Time;durP1;ratioP1;P1;durP2;ratioP2;P2;SDS_P1;SDS_P2;PMS_P1;PMS_P2;Temp;Humidity;BMP_temperature;BMP_pressure;BME280_temperature;BME280_humidity;BME280_pressure;Samples;Min_cycle;Max_cycle;Signal;HPM_P1;HPM_P2
2022/07/30 04:01:48;;;;;;;9.63;6.97;;;14.70;99.90;;;;;;5355339;23;20051;-72
2022/07/30 04:04:13;;;;;;;8.68;7.15;;;14.80;99.90;;;;;;4975419;28;20497;-72
2022/07/30 04:06:39;;;;;;;8.73;7.15;;;14.80;99.90;;;;;;4975664;28;20043;-72
2022/07/30 04:09:06;;;;;;;7.95;7.15;;;14.90;99.90;;;;;;4974404;28;20082;-72
2022/07/30 04:11:32;;;;;;;8.52;6.63;;;15.00;99.90;;;;;;4975658;28;20031;-72
2022/07/30 04:13:57;;;;;;;9.05;7.55;;;15.00;99.90;;;;;;4975716;28;20036;-71
2022/07/30 04:16:34;;;;;;;8.40;7.47;;;15.00;99.90;;;;;;4976544;28;20070;-72
2022/07/30 04:19:02;;;;;;;8.40;7.53;;;15.00;99.90;;;;;;4975532;28;20090;-72
2022/07/30 04:21:28;;;;;;;7.78;6.75;;;15.00;99.90;;;;;;4974125;28;20031;-72
2022/07/30 04:23:56;;;;;;;8.45;7.10;;;15.00;99.90;;;;;;4975610;28;20467;-73
2022/07/30 04:26:22;;;;;;;7.30;6.60;;;15.00;99.90;;;;;;4972939;28;20039;-73
2022/07/30 04:28:48;;;;;;;8.38;7.28;;;15.00;99.90;;;;;;4975804;28;20118;-72
2022/07/30 04:31:14;;;;;;;8.18;6.88;;;15.10;99.90;;;;;;4973715;28;20126;-72
2022/07/30 04:33:40;;;;;;;8.77;6.60;;;15.10;99.90;;;;;;4975493;28;20134;-73
2022/07/30 04:36:08;;;;;;;9.35;6.82;;;15.10;99.90;;;;;;4975282;28;20118;-72
2022/07/30 04:38:34;;;;;;;7.80;7.00;;;15.10;99.90;;;;;;4975503;28;20552;-71
2022/07/30 04:41:00;;;;;;;7.88;7.07;;;15.10;99.90;;;;;;4975522;28;20086;-71
2022/07/30 04:43:26;;;;;;;8.40;6.88;;;15.20;99.90;;;;;;4975481;28;20035;-71
2022/07/30 04:45:51;;;;;;;7.65;6.95;;;15.20;99.90;;;;;;4974814;28;20386;-71
2022/07/30 04:48:17;;;;;;;7.93;7.13;;;15.30;99.90;;;;;;4975269;28;20492;-71
2022/07/30 04:50:47;;;;;;;9.80;7.20;;;15.20;99.90;;;;;;4975264;28;20070;-71
2022/07/30 04:53:14;;;;;;;8.07;7.07;;;15.30;99.90;;;;;;4975295;28;20043;-71
2022/07/30 04:55:41;;;;;;;10.63;7.70;;;15.30;99.90;;;;;;4975002;28;20027;-71
2022/07/30 04:58:09;;;;;;;8.60;6.90;;;15.30;99.90;;;;;;4974916;28;20119;-71
2022/07/30 05:00:38;;;;;;;7.57;6.88;;;15.30;99.90;;;;;;4974838;28;20035;-71
2022/07/30 05:03:06;;;;;;;10.95;7.57;;;15.30;99.90;;;;;;4975046;28;20070;-71
2022/07/30 05:05:32;;;;;;;9.93;7.53;;;15.30;99.90;;;;;;4975047;28;20035;-71
2022/07/30 05:08:00;;;;;;;9.65;6.80;;;15.30;99.90;;;;;;4975346;28;20032;-71
2022/07/30 05:10:26;;;;;;;9.13;7.60;;;15.30;99.90;;;;;;4975313;28;20039;-71
2022/07/30 05:12:51;;;;;;;10.52;7.10;;;15.40;99.90;;;;;;4974997;28;20035;-71
2022/07/30 05:15:17;;;;;;;8.27;7.47;;;15.50;99.90;;;;;;4974660;28;20091;-71
2022/07/30 05:17:44;;;;;;;10.02;7.20;;;15.50;99.90;;;;;;4975107;28;20134;-71
2022/07/30 05:20:09;;;;;;;8.10;7.30;;;15.60;99.90;;;;;;4975224;28;20031;-72
2022/07/30 05:22:35;;;;;;;7.90;7.10;;;15.70;99.90;;;;;;4975152;28;20031;-72
2022/07/30 05:25:01;;;;;;;8.45;7.45;;;15.70;99.90;;;;;;4973304;28;20040;-72
2022/07/30 05:27:26;;;;;;;10.05;7.10;;;15.80;99.90;;;;;;4974573;28;20548;-72
2022/07/30 05:29:52;;;;;;;10.77;7.43;;;15.80;99.90;;;;;;4974781;28;20520;-72
2022/07/30 05:32:17;;;;;;;8.38;7.38;;;15.90;99.90;;;;;;4974928;28;20070;-72
2022/07/30 05:34:43;;;;;;;9.00;6.50;;;16.00;99.90;;;;;;4974561;28;20031;-72
2022/07/30 05:37:08;;;;;;;12.20;7.00;;;16.10;99.90;;;;;;4975308;28;20057;-72
2022/07/30 05:39:34;;;;;;;7.07;6.32;;;16.20;99.90;;;;;;4976724;28;20106;-72
2022/07/30 05:41:59;;;;;;;8.23;6.30;;;16.30;99.90;;;;;;4977662;28;20519;-72
2022/07/30 05:44:25;;;;;;;8.10;7.00;;;16.40;99.90;;;;;;4977794;28;20035;-72
2022/07/30 05:46:51;;;;;;;8.45;6.43;;;16.50;99.90;;;;;;4976456;28;20062;-72
2022/07/30 05:49:16;;;;;;;7.22;5.68;;;16.60;99.90;;;;;;4978166;28;20031;-72
2022/07/30 05:51:42;;;;;;;7.25;6.15;;;16.70;99.90;;;;;;4977819;28;20516;-72
2022/07/30 05:54:08;;;;;;;7.97;7.18;;;16.80;99.90;;;;;;4978081;28;20116;-72
2022/07/30 05:56:34;;;;;;;7.32;6.63;;;16.90;99.90;;;;;;4977976;28;20082;-72
2022/07/30 05:59:00;;;;;;;8.95;6.43;;;17.00;99.90;;;;;;4977809;28;20114;-72
2022/07/30 06:01:26;;;;;;;11.73;6.90;;;17.00;99.90;;;;;;4977047;28;20125;-72
2022/07/30 06:03:51;;;;;;;7.55;5.63;;;17.00;99.90;;;;;;4977687;28;20060;-71
2022/07/30 06:06:17;;;;;;;9.05;6.53;;;17.10;99.90;;;;;;4975912;28;20043;-71
2022/07/30 06:08:43;;;;;;;10.30;6.13;;;17.20;99.90;;;;;;4978163;28;20035;-72
2022/07/30 06:11:08;;;;;;;9.30;5.78;;;17.40;99.90;;;;;;4977650;28;20066;-72
2022/07/30 06:13:34;;;;;;;9.27;6.07;;;17.40;99.90;;;;;;4977681;28;20046;-72
2022/07/30 06:16:00;;;;;;;9.85;6.05;;;17.50;99.90;;;;;;4977134;28;20045;-72
2022/07/30 06:18:26;;;;;;;9.30;5.78;;;17.60;99.90;;;;;;4977853;28;20043;-72
2022/07/30 06:20:53;;;;;;;7.53;5.60;;;17.70;99.90;;;;;;4975781;28;20035;-74
2022/07/30 06:23:19;;;;;;;8.43;5.90;;;17.70;99.90;;;;;;4977501;28;20058;-73
2022/07/30 06:25:47;;;;;;;10.55;6.47;;;18.00;99.90;;;;;;4977237;28;20042;-75
2022/07/30 06:28:16;;;;;;;8.30;5.25;;;18.30;99.90;;;;;;4977301;28;20480;-71
2022/07/30 06:30:44;;;;;;;10.00;5.47;;;18.50;99.90;;;;;;4977196;28;20039;-73
2022/07/30 06:33:11;;;;;;;9.65;5.65;;;18.60;99.90;;;;;;4977197;28;20027;-71
2022/07/30 06:35:36;;;;;;;8.27;5.68;;;18.70;99.90;;;;;;4977161;28;20401;-71
2022/07/30 06:38:02;;;;;;;9.48;5.97;;;18.80;99.90;;;;;;4975681;28;20035;-71
2022/07/30 06:40:27;;;;;;;9.27;5.47;;;18.80;99.90;;;;;;4977078;28;20089;-71
2022/07/30 06:42:53;;;;;;;11.52;5.60;;;19.00;99.90;;;;;;4977325;28;20035;-74
2022/07/30 06:45:18;;;;;;;9.25;5.47;;;19.10;99.90;;;;;;4976797;28;20031;-73
2022/07/30 06:47:44;;;;;;;9.23;5.22;;;19.30;99.90;;;;;;4984024;28;20039;-70
2022/07/30 06:50:10;;;;;;;8.43;6.18;;;19.30;99.90;;;;;;4995904;28;20058;-77
2022/07/30 06:52:35;;;;;;;7.85;5.40;;;19.40;99.90;;;;;;4995088;28;20085;-71
2022/07/30 06:55:01;;;;;;;6.13;5.00;;;19.50;99.90;;;;;;4996288;28;20035;-72
2022/07/30 06:57:26;;;;;;;9.55;5.70;;;19.60;99.90;;;;;;4992652;28;20130;-71
2022/07/30 06:59:52;;;;;;;11.05;5.70;;;19.70;99.90;;;;;;4967935;28;20035;-72
2022/07/30 07:02:18;;;;;;;8.70;5.22;;;19.80;99.90;;;;;;4976788;28;20505;-72
2022/07/30 07:04:44;;;;;;;10.00;6.03;;;20.00;99.90;;;;;;4977362;28;20028;-73
2022/07/30 07:07:09;;;;;;;7.80;4.78;;;20.10;99.90;;;;;;4977196;28;20047;-74
2022/07/30 07:09:35;;;;;;;8.70;5.13;;;20.30;99.90;;;;;;4977553;28;20031;-73
2022/07/30 07:12:00;;;;;;;9.68;4.63;;;20.30;99.90;;;;;;4977176;28;20035;-76
2022/07/30 07:14:26;;;;;;;12.07;4.88;;;20.30;99.90;;;;;;4977112;28;20039;-73
2022/07/30 07:16:51;;;;;;;7.32;5.20;;;20.50;99.90;;;;;;4976581;28;20046;-74
2022/07/30 07:19:17;;;;;;;8.48;5.57;;;20.80;99.90;;;;;;4975191;28;20046;-75
2022/07/30 07:21:42;;;;;;;7.43;5.15;;;21.00;99.90;;;;;;4975188;28;20074;-75
2022/07/30 07:24:08;;;;;;;9.63;5.38;;;21.10;99.90;;;;;;4976512;28;20035;-74
2022/07/30 07:26:34;;;;;;;7.40;5.78;;;21.30;99.60;;;;;;4976676;28;20449;-74
2022/07/30 07:29:00;;;;;;;8.68;5.50;;;21.50;98.80;;;;;;4974748;28;20035;-75
2022/07/30 07:31:26;;;;;;;12.93;5.43;;;21.50;98.40;;;;;;4976300;28;20080;-73
2022/07/30 07:33:53;;;;;;;9.45;5.38;;;21.70;98.30;;;;;;4976647;28;20547;-71
2022/07/30 07:36:22;;;;;;;10.32;5.50;;;21.80;97.40;;;;;;4976435;28;20040;-75
2022/07/30 07:38:48;;;;;;;10.35;5.38;;;22.00;97.40;;;;;;4976084;28;20055;-73
2022/07/30 07:41:14;;;;;;;8.27;5.00;;;22.10;96.90;;;;;;4974779;28;20457;-73
2022/07/30 07:43:40;;;;;;;9.20;5.50;;;22.30;96.60;;;;;;4976209;28;20040;-73
2022/07/30 07:46:05;;;;;;;8.35;5.18;;;22.50;96.10;;;;;;4967363;28;20043;-73
2022/07/30 07:48:31;;;;;;;7.25;5.00;;;22.40;96.20;;;;;;4957518;28;20032;-74
2022/07/30 07:50:57;;;;;;;7.72;4.57;;;22.60;96.10;;;;;;4957270;28;20505;-75
2022/07/30 07:53:23;;;;;;;6.20;4.43;;;22.90;94.70;;;;;;4957312;28;20036;-75
2022/07/30 07:55:49;;;;;;;13.32;4.93;;;22.90;93.70;;;;;;4957048;28;20047;-76
2022/07/30 07:58:15;;;;;;;8.85;5.00;;;22.80;93.60;;;;;;4957439;28;20468;-75
2022/07/30 08:00:41;;;;;;;6.20;4.43;;;23.10;93.30;;;;;;4956393;28;20043;-75
2022/07/30 08:03:06;;;;;;;10.57;5.20;;;23.30;93.30;;;;;;4957276;28;20046;-72
2022/07/30 08:05:32;;;;;;;5.55;4.10;;;23.50;92.40;;;;;;4956986;28;20044;-72
2022/07/30 08:07:58;;;;;;;7.63;4.57;;;23.60;91.50;;;;;;4954609;28;20566;-72
2022/07/30 08:10:24;;;;;;;7.60;4.30;;;23.70;91.30;;;;;;4955097;28;20078;-74
2022/07/30 08:12:49;;;;;;;6.68;4.25;;;23.70;91.60;;;;;;4956572;28;20501;-74
2022/07/30 08:15:15;;;;;;;7.28;4.40;;;23.70;91.20;;;;;;4956445;28;20118;-72
2022/07/30 08:17:45;;;;;;;8.15;4.75;;;23.80;90.10;;;;;;4973068;28;20047;-76
2022/07/30 08:20:12;;;;;;;7.05;4.38;;;24.00;88.80;;;;;;4976031;28;20031;-73
2022/07/30 08:22:41;;;;;;;6.10;4.57;;;24.20;89.00;;;;;;4975819;28;20046;-73
2022/07/30 08:25:07;;;;;;;8.70;4.65;;;24.20;88.70;;;;;;4975749;28;20031;-75
2022/07/30 08:27:33;;;;;;;7.53;4.28;;;24.30;87.80;;;;;;4975812;28;20062;-73
2022/07/30 08:30:06;;;;;;;7.95;4.13;;;24.50;86.60;;;;;;4975617;28;20047;-74
2022/07/30 08:32:32;;;;;;;7.68;4.80;;;24.50;86.30;;;;;;4975600;28;20053;-69
2022/07/30 08:34:58;;;;;;;7.07;4.82;;;24.30;85.80;;;;;;4975399;28;20038;-69
2022/07/30 08:37:23;;;;;;;8.88;4.40;;;24.10;85.60;;;;;;4975279;28;20047;-70
2022/07/30 08:39:49;;;;;;;5.95;4.47;;;24.10;86.40;;;;;;4975355;28;20035;-70
2022/07/30 08:42:15;;;;;;;6.60;4.00;;;23.90;86.10;;;;;;4974951;28;20039;-69
2022/07/30 08:44:44;;;;;;;11.85;4.70;;;23.80;85.90;;;;;;4973156;28;20070;-70
2022/07/30 08:47:14;;;;;;;6.47;4.40;;;23.70;84.20;;;;;;4975315;28;20043;-69
2022/07/30 08:49:40;;;;;;;5.13;3.90;;;24.00;84.30;;;;;;4975546;28;20066;-69
2022/07/30 08:52:07;;;;;;;5.97;4.40;;;24.80;83.60;;;;;;4975207;28;20062;-74
2022/07/30 08:54:34;;;;;;;6.68;4.18;;;25.30;80.40;;;;;;4975076;28;20042;-74
2022/07/30 08:57:00;;;;;;;10.18;5.32;;;25.20;80.70;;;;;;4975222;28;20061;-74
2022/07/30 08:59:26;;;;;;;10.70;4.50;;;24.80;80.00;;;;;;4974709;28;20576;-74
2022/07/30 09:01:52;;;;;;;6.32;4.20;;;24.40;81.60;;;;;;4974587;28;20079;-74
2022/07/30 09:04:17;;;;;;;9.40;4.25;;;24.60;83.20;;;;;;4974794;28;20039;-74
2022/07/30 09:06:43;;;;;;;6.93;4.80;;;25.10;82.00;;;;;;4974914;28;20470;-74
2022/07/30 09:09:09;;;;;;;6.63;4.60;;;25.80;77.10;;;;;;4974801;28;20043;-74
2022/07/30 09:11:35;;;;;;;6.30;3.53;;;26.10;76.90;;;;;;4975016;28;20062;-74
2022/07/30 09:14:10;;;;;;;11.65;4.80;;;26.30;76.90;;;;;;4977960;28;20083;-74
2022/07/30 09:16:37;;;;;;;7.15;3.53;;;26.80;74.20;;;;;;4978655;28;20043;-75
2022/07/30 09:19:20;;;;;;;11.15;3.97;;;26.60;74.40;;;;;;4978532;28;20031;-74
2022/07/30 09:22:00;;;;;;;6.43;3.80;;;26.40;76.00;;;;;;4978661;28;20039;-76
2022/07/30 09:24:27;;;;;;;10.32;3.45;;;25.90;75.30;;;;;;4978853;28;20034;-74
2022/07/30 09:26:56;;;;;;;6.05;3.38;;;25.40;74.20;;;;;;4975105;28;20513;-74
2022/07/30 09:29:25;;;;;;;5.18;3.88;;;25.30;74.30;;;;;;4962765;28;20032;-74
2022/07/30 09:32:05;;;;;;;7.25;4.00;;;25.60;73.60;;;;;;4973656;28;20035;-74
2022/07/30 09:34:33;;;;;;;5.70;3.97;;;25.80;74.10;;;;;;4958904;28;20032;-74
2022/07/30 09:37:15;;;;;;;7.43;3.33;;;26.10;73.70;;;;;;4971491;28;20472;-74
2022/07/30 09:39:42;;;;;;;8.30;3.88;;;26.80;71.80;;;;;;4975185;28;20123;-74
2022/07/30 09:42:26;;;;;;;5.75;3.60;;;26.80;70.90;;;;;;4977335;28;20504;-75
2022/07/30 09:45:03;;;;;;;7.53;3.55;;;26.80;71.50;;;;;;4975720;28;20067;-74
2022/07/30 09:47:37;;;;;;;4.80;3.50;;;26.80;70.30;;;;;;4970442;28;20043;-74
2022/07/30 09:50:11;;;;;;;5.38;3.20;;;27.20;68.20;;;;;;4975344;28;20038;-79
2022/07/30 09:52:38;;;;;;;4.45;3.45;;;27.20;67.20;;;;;;4977061;28;20031;-76
2022/07/30 09:55:05;;;;;;;6.18;2.80;;;27.40;67.10;;;;;;4974051;28;20235;-74
2022/07/30 09:57:30;;;;;;;6.80;3.55;;;27.80;66.70;;;;;;4975793;28;20039;-80
2022/07/30 10:00:00;;;;;;;4.88;3.45;;;27.80;63.00;;;;;;4976509;28;20031;-76
2022/07/30 10:02:28;;;;;;;5.63;3.33;;;27.60;64.60;;;;;;4977799;28;20493;-78
2022/07/30 10:05:06;;;;;;;5.03;3.80;;;27.30;64.70;;;;;;4976691;28;20038;-76
2022/07/30 10:07:32;;;;;;;4.88;3.53;;;27.20;67.20;;;;;;4977539;28;20123;-77
2022/07/30 10:09:59;;;;;;;4.35;3.30;;;27.00;67.50;;;;;;4977937;28;20038;-77
2022/07/30 10:12:25;;;;;;;7.88;3.60;;;27.40;67.40;;;;;;4975873;28;20039;-74
2022/07/30 10:14:53;;;;;;;3.90;3.45;;;28.00;65.20;;;;;;4975790;28;20122;-73
2022/07/30 10:17:20;;;;;;;5.57;3.65;;;27.90;64.80;;;;;;4976970;28;20536;-73
2022/07/30 10:19:47;;;;;;;5.45;4.03;;;27.80;65.00;;;;;;4974913;28;20035;-74
2022/07/30 10:22:14;;;;;;;6.40;3.78;;;27.60;66.40;;;;;;4977195;28;20489;-74
2022/07/30 10:24:40;;;;;;;5.30;3.63;;;27.30;66.20;;;;;;4974257;28;20054;-74
2022/07/30 10:27:08;;;;;;;8.07;3.60;;;27.60;68.20;;;;;;4977931;28;20044;-79
2022/07/30 10:29:37;;;;;;;6.20;3.90;;;27.80;65.70;;;;;;4977023;28;20027;-74
2022/07/30 10:32:03;;;;;;;11.07;4.10;;;27.80;65.50;;;;;;4976561;28;20027;-74
2022/07/30 10:34:31;;;;;;;5.40;3.35;;;27.90;65.70;;;;;;4977794;28;20498;-74
2022/07/30 10:37:00;;;;;;;5.25;3.47;;;28.30;66.10;;;;;;4974821;28;20074;-74
2022/07/30 10:39:37;;;;;;;8.32;4.10;;;28.60;64.60;;;;;;4970028;28;20028;-74
2022/07/30 10:42:06;;;;;;;6.00;3.78;;;27.80;64.30;;;;;;4956807;28;20039;-74
2022/07/30 10:44:34;;;;;;;4.75;3.30;;;27.10;67.00;;;;;;4956800;28;20507;-74
2022/07/30 10:47:02;;;;;;;5.22;3.65;;;27.00;69.40;;;;;;4954579;28;20050;-74
2022/07/30 10:49:28;;;;;;;4.68;3.60;;;27.50;66.50;;;;;;4957738;28;20127;-74
2022/07/30 10:51:54;;;;;;;5.20;3.35;;;28.10;65.60;;;;;;4957488;28;20073;-74
2022/07/30 10:54:41;;;;;;;7.45;3.25;;;28.30;65.00;;;;;;4957638;28;20817;-80
2022/07/30 10:57:18;;;;;;;5.18;3.05;;;28.20;63.40;;;;;;4957687;28;20122;-74
2022/07/30 10:59:59;;;;;;;5.93;3.05;;;28.00;63.60;;;;;;4957842;28;20079;-74
2022/07/30 11:02:26;;;;;;;5.68;2.95;;;28.30;63.30;;;;;;4958174;28;20802;-73
2022/07/30 11:05:16;;;;;;;3.92;2.80;;;28.20;62.00;;;;;;4956006;28;20110;-73
2022/07/30 11:07:43;;;;;;;7.05;3.13;;;28.50;62.50;;;;;;4957952;28;20071;-77
2022/07/30 11:10:36;;;;;;;6.30;3.22;;;28.40;61.40;;;;;;4957607;28;20042;-73
2022/07/30 11:13:02;;;;;;;5.30;3.30;;;27.80;64.90;;;;;;4958299;28;20035;-73
2022/07/30 11:15:58;;;;;;;5.60;3.30;;;27.50;64.80;;;;;;4957994;28;20023;-74
2022/07/30 11:18:25;;;;;;;5.18;3.35;;;28.00;63.80;;;;;;4955756;28;20047;-74
2022/07/30 11:21:17;;;;;;;14.57;3.33;;;28.20;63.20;;;;;;4955086;28;20772;-71
2022/07/30 11:23:44;;;;;;;4.07;2.90;;;28.00;63.70;;;;;;4956844;28;20043;-71
2022/07/30 11:26:30;;;;;;;9.25;3.30;;;28.10;62.40;;;;;;4956404;28;20494;-70
2022/07/30 11:28:56;;;;;;;3.28;2.88;;;28.50;63.00;;;;;;4955154;28;20039;-71
2022/07/30 11:31:31;;;;;;;5.63;2.88;;;29.00;61.70;;;;;;4967915;28;20042;-71
2022/07/30 11:34:18;;;;;;;5.93;3.15;;;29.10;60.90;;;;;;4964950;28;20071;-72
2022/07/30 11:37:13;;;;;;;9.82;2.83;;;28.80;60.70;;;;;;4964752;28;20117;-72
2022/07/30 11:39:57;;;;;;;4.25;2.58;;;28.10;61.20;;;;;;4961937;28;20032;-72
2022/07/30 11:42:36;;;;;;;3.50;2.70;;;27.70;62.80;;;;;;4975297;28;20066;-72
2022/07/30 11:45:14;;;;;;;3.63;2.50;;;27.40;63.60;;;;;;4975172;28;20040;-72
2022/07/30 11:47:51;;;;;;;3.78;2.67;;;28.10;62.60;;;;;;4974890;28;20043;-72
2022/07/30 11:50:18;;;;;;;4.05;2.60;;;28.90;61.40;;;;;;4970123;28;20038;-71
2022/07/30 11:53:02;;;;;;;6.00;2.85;;;29.50;59.70;;;;;;4974063;28;20039;-73
2022/07/30 11:55:32;;;;;;;5.50;2.63;;;30.00;59.00;;;;;;4970622;28;20498;-72
2022/07/30 11:57:59;;;;;;;4.38;2.63;;;29.90;60.00;;;;;;4972904;28;20484;-72
2022/07/30 12:00:32;;;;;;;4.57;2.45;;;30.40;57.60;;;;;;4968858;28;20699;-72
2022/07/30 12:02:58;;;;;;;5.05;2.95;;;30.50;57.00;;;;;;4976150;28;20035;-71
2022/07/30 12:05:25;;;;;;;10.40;2.13;;;30.80;58.10;;;;;;4972121;28;20132;-72
2022/07/30 12:07:56;;;;;;;5.40;2.45;;;31.50;54.80;;;;;;4962476;28;20038;-72
2022/07/30 12:10:22;;;;;;;4.93;2.42;;;31.60;54.40;;;;;;4979341;28;20015;-77
2022/07/30 12:12:48;;;;;;;2.55;2.22;;;31.10;54.90;;;;;;4979079;28;20481;-76
2022/07/30 12:15:32;;;;;;;4.55;2.40;;;31.00;54.40;;;;;;4959213;28;20071;-75
2022/07/30 12:17:59;;;;;;;2.55;2.10;;;30.80;55.60;;;;;;4956244;28;20036;-76
2022/07/30 12:20:24;;;;;;;5.63;2.20;;;31.60;55.10;;;;;;4955550;28;20516;-74
2022/07/30 12:22:50;;;;;;;3.95;2.30;;;32.00;52.60;;;;;;4955787;28;20042;-76
2022/07/30 12:25:16;;;;;;;3.53;2.17;;;32.20;51.70;;;;;;4955842;28;20028;-76
2022/07/30 12:27:46;;;;;;;2.75;2.05;;;32.50;52.20;;;;;;4956367;28;20131;-78
2022/07/30 12:30:13;;;;;;;4.72;1.98;;;32.20;52.20;;;;;;4964099;28;20126;-72
2022/07/30 12:32:38;;;;;;;2.30;2.10;;;32.50;53.30;;;;;;4972707;28;20039;-72
2022/07/30 12:35:04;;;;;;;4.53;2.17;;;32.60;53.20;;;;;;4974047;28;20043;-76
2022/07/30 12:37:30;;;;;;;3.63;2.22;;;31.90;53.60;;;;;;4975118;28;20553;-72
2022/07/30 12:40:06;;;;;;;2.97;2.13;;;31.40;53.20;;;;;;4973632;28;20062;-71
2022/07/30 12:42:31;;;;;;;4.95;2.10;;;30.80;55.30;;;;;;4955827;28;20042;-72
2022/07/30 12:44:58;;;;;;;7.15;2.53;;;30.40;55.30;;;;;;4955392;28;20046;-71
2022/07/30 12:47:25;;;;;;;2.97;2.40;;;30.10;55.60;;;;;;4954711;28;20050;-73
2022/07/30 12:49:55;;;;;;;2.83;2.40;;;30.00;56.30;;;;;;4970215;28;20399;-72
2022/07/30 12:52:26;;;;;;;3.38;2.58;;;29.50;57.20;;;;;;4978535;28;20094;-72
2022/07/30 12:55:11;;;;;;;3.63;2.08;;;29.40;57.40;;;;;;4976893;28;20042;-72
2022/07/30 12:58:00;;;;;;;2.83;2.13;;;29.80;56.90;;;;;;4959091;28;20107;-72
2022/07/30 13:00:30;;;;;;;4.78;2.05;;;30.30;55.50;;;;;;4958781;28;20071;-72
2022/07/30 13:02:56;;;;;;;3.80;2.08;;;30.70;55.50;;;;;;4966289;28;20039;-72
2022/07/30 13:05:50;;;;;;;4.30;2.30;;;30.70;54.80;;;;;;4975342;28;20060;-71
2022/07/30 13:08:17;;;;;;;3.22;1.90;;;31.00;54.60;;;;;;4977610;28;20097;-71
2022/07/30 13:10:59;;;;;;;2.40;2.20;;;31.70;52.70;;;;;;4973840;28;20047;-73
2022/07/30 13:13:30;;;;;;;3.55;2.17;;;31.90;52.20;;;;;;4967890;28;21206;-71
2022/07/30 13:16:04;;;;;;;4.97;2.33;;;32.00;52.50;;;;;;4974294;28;20501;-73
2022/07/30 13:18:31;;;;;;;7.38;2.22;;;32.30;51.80;;;;;;4977544;28;20445;-72
2022/07/30 13:20:57;;;;;;;7.05;2.50;;;31.80;52.00;;;;;;4976996;28;20076;-72
2022/07/30 13:23:24;;;;;;;3.22;2.30;;;31.10;52.90;;;;;;4977493;28;20042;-71
2022/07/30 13:25:50;;;;;;;5.63;2.30;;;30.90;53.40;;;;;;4977379;28;20046;-72
2022/07/30 13:28:16;;;;;;;3.10;2.20;;;31.30;54.10;;;;;;4977707;28;20031;-72
2022/07/30 13:30:42;;;;;;;3.85;2.17;;;32.20;52.10;;;;;;4977227;28;20468;-72
2022/07/30 13:33:07;;;;;;;2.63;2.30;;;33.00;51.50;;;;;;4977580;28;20039;-72
2022/07/30 13:35:33;;;;;;;3.75;2.25;;;33.80;50.80;;;;;;4976867;28;20062;-72
2022/07/30 13:38:00;;;;;;;2.83;1.80;;;34.20;48.10;;;;;;4979038;28;20163;-73
2022/07/30 13:40:26;;;;;;;3.80;1.98;;;34.40;47.20;;;;;;4978319;28;20505;-72
2022/07/30 13:42:52;;;;;;;3.78;1.90;;;34.60;47.60;;;;;;4977806;28;20043;-72
2022/07/30 13:45:17;;;;;;;4.07;2.00;;;35.20;46.00;;;;;;4977507;28;20401;-71
2022/07/30 13:47:43;;;;;;;2.60;2.08;;;36.00;45.10;;;;;;4978077;28;20047;-71
2022/07/30 13:50:08;;;;;;;2.88;2.10;;;35.40;44.90;;;;;;4976868;28;20087;-71
2022/07/30 13:52:34;;;;;;;3.15;1.88;;;33.70;46.60;;;;;;4976711;28;20039;-72
2022/07/30 13:55:01;;;;;;;2.10;1.85;;;33.00;48.40;;;;;;4977501;28;20114;-73
2022/07/30 13:57:27;;;;;;;3.10;2.25;;;32.90;48.80;;;;;;4978223;28;20031;-74
2022/07/30 13:59:52;;;;;;;4.82;2.03;;;33.70;48.70;;;;;;4977986;28;20505;-74
2022/07/30 14:02:18;;;;;;;4.90;2.38;;;34.80;46.70;;;;;;4977891;28;20039;-75
2022/07/30 14:04:43;;;;;;;7.13;2.40;;;33.70;47.90;;;;;;4977922;28;21049;-72
2022/07/30 14:07:09;;;;;;;4.28;2.20;;;32.60;48.80;;;;;;4977831;28;20180;-72
2022/07/30 14:09:34;;;;;;;2.45;1.92;;;32.50;49.50;;;;;;4977883;28;20039;-72
2022/07/30 14:12:00;;;;;;;5.05;2.10;;;33.00;49.20;;;;;;4977586;28;20794;-73
2022/07/30 14:14:25;;;;;;;4.18;1.92;;;34.20;47.40;;;;;;4977544;28;20114;-72
2022/07/30 14:16:51;;;;;;;2.67;1.80;;;35.20;46.30;;;;;;4977807;28;20035;-72
2022/07/30 14:19:17;;;;;;;2.55;2.10;;;36.10;45.60;;;;;;4977542;28;20110;-74
2022/07/30 14:21:43;;;;;;;3.70;1.70;;;36.40;43.50;;;;;;4977503;28;20095;-76
2022/07/30 14:24:10;;;;;;;9.13;2.20;;;35.70;43.50;;;;;;4977521;28;20038;-75
2022/07/30 14:26:37;;;;;;;2.58;1.73;;;34.90;45.70;;;;;;4977554;28;20042;-72
2022/07/30 14:29:06;;;;;;;2.47;1.48;;;33.80;46.00;;;;;;4977620;28;20133;-72
2022/07/30 14:31:32;;;;;;;3.13;2.10;;;33.00;48.10;;;;;;4976993;28;20138;-72
2022/07/30 14:33:57;;;;;;;2.58;1.80;;;32.60;47.80;;;;;;4977013;28;20501;-72
2022/07/30 14:36:26;;;;;;;4.57;2.00;;;31.80;49.10;;;;;;4977353;28;20039;-72
2022/07/30 14:38:52;;;;;;;4.00;1.90;;;31.10;50.40;;;;;;4977207;28;20035;-73
2022/07/30 14:41:18;;;;;;;4.13;1.75;;;31.20;50.50;;;;;;4975819;28;20035;-72
2022/07/30 14:43:43;;;;;;;3.42;2.00;;;31.10;50.10;;;;;;4977296;28;20113;-72
2022/07/30 14:46:09;;;;;;;4.07;2.10;;;32.00;49.70;;;;;;4976548;28;20039;-73
2022/07/30 14:48:34;;;;;;;3.50;1.98;;;34.10;47.80;;;;;;4975949;28;20042;-73
2022/07/30 14:51:01;;;;;;;3.50;1.83;;;35.50;45.00;;;;;;4977422;28;20040;-74
2022/07/30 14:53:26;;;;;;;2.38;1.80;;;37.10;43.00;;;;;;4975801;28;20155;-74
2022/07/30 14:55:52;;;;;;;1.88;1.67;;;37.60;42.30;;;;;;4975347;28;20159;-74
2022/07/30 14:58:17;;;;;;;4.15;2.00;;;38.20;40.90;;;;;;4975434;28;20486;-74
2022/07/30 15:00:43;;;;;;;3.45;1.83;;;38.50;40.60;;;;;;4976253;28;20402;-74
2022/07/30 15:03:08;;;;;;;3.20;1.55;;;39.30;39.90;;;;;;4975141;28;20394;-74
2022/07/30 15:05:34;;;;;;;2.85;1.70;;;40.20;38.00;;;;;;4976581;28;20046;-74
2022/07/30 15:08:00;;;;;;;2.72;1.80;;;39.30;37.90;;;;;;4976834;28;20505;-74
2022/07/30 15:10:25;;;;;;;2.10;1.50;;;38.90;39.50;;;;;;4975816;28;20038;-74
2022/07/30 15:12:51;;;;;;;4.80;1.88;;;40.00;39.60;;;;;;4976683;28;20061;-75
2022/07/30 15:15:16;;;;;;;2.13;1.80;;;41.60;37.50;;;;;;4976448;28;20027;-74
2022/07/30 15:17:42;;;;;;;2.83;1.88;;;42.30;34.50;;;;;;4976459;28;20409;-74
2022/07/30 15:20:08;;;;;;;2.25;1.70;;;40.20;36.30;;;;;;4975313;28;20067;-74
2022/07/30 15:22:34;;;;;;;3.45;1.95;;;40.20;36.90;;;;;;4976727;28;20038;-74
2022/07/30 15:25:00;;;;;;;3.08;2.00;;;40.30;36.20;;;;;;4976306;28;20031;-74
2022/07/30 15:27:26;;;;;;;3.70;1.90;;;40.20;36.10;;;;;;4976604;28;20058;-74
2022/07/30 15:29:51;;;;;;;3.17;1.83;;;41.30;36.20;;;;;;4975405;28;20493;-77
2022/07/30 15:32:17;;;;;;;2.92;2.00;;;41.00;35.60;;;;;;4976306;28;20042;-74
2022/07/30 15:34:42;;;;;;;2.55;1.70;;;41.20;35.50;;;;;;4975873;28;20118;-74
2022/07/30 15:37:08;;;;;;;2.47;1.80;;;41.00;37.30;;;;;;4975979;28;20082;-74
2022/07/30 15:39:34;;;;;;;7.53;2.10;;;41.40;35.50;;;;;;4976456;28;20106;-74
2022/07/30 15:42:01;;;;;;;3.90;1.98;;;41.90;34.70;;;;;;4974300;28;20040;-74
2022/07/30 15:44:27;;;;;;;2.22;1.80;;;42.30;35.00;;;;;;4975773;28;20114;-74
2022/07/30 15:46:53;;;;;;;2.30;1.85;;;42.30;34.10;;;;;;4975964;28;20051;-74
2022/07/30 15:49:18;;;;;;;1.90;1.80;;;40.60;36.10;;;;;;4975053;28;20039;-74
2022/07/30 15:51:50;;;;;;;3.58;1.70;;;40.20;36.60;;;;;;4976247;28;20039;-74
2022/07/30 15:54:17;;;;;;;3.28;1.63;;;39.80;35.20;;;;;;4976258;28;20037;-74
2022/07/30 15:56:44;;;;;;;3.67;2.13;;;39.30;36.10;;;;;;4975707;28;20506;-74
2022/07/30 15:59:11;;;;;;;2.35;1.77;;;40.00;36.60;;;;;;4976235;28;20501;-74
2022/07/30 16:01:37;;;;;;;2.80;1.77;;;40.50;35.10;;;;;;4975488;28;20090;-74
2022/07/30 16:04:04;;;;;;;2.95;1.80;;;39.80;36.20;;;;;;4974166;28;20520;-74
2022/07/30 16:06:30;;;;;;;2.15;1.80;;;39.80;36.40;;;;;;4975945;28;20042;-74
2022/07/30 16:08:56;;;;;;;4.72;1.80;;;40.50;36.80;;;;;;4976061;28;20031;-74
2022/07/30 16:11:22;;;;;;;3.40;1.88;;;40.40;36.10;;;;;;4975555;28;20521;-74
2022/07/30 16:13:48;;;;;;;3.10;1.88;;;39.70;36.20;;;;;;4975878;28;20114;-74
2022/07/30 16:16:14;;;;;;;4.18;1.90;;;38.30;37.80;;;;;;4974346;28;20043;-73
2022/07/30 16:18:39;;;;;;;4.30;1.85;;;36.30;39.10;;;;;;4976395;28;20035;-74
2022/07/30 16:21:05;;;;;;;3.67;1.90;;;35.90;40.80;;;;;;4974218;28;20057;-74
2022/07/30 16:23:30;;;;;;;1.90;1.80;;;35.40;41.10;;;;;;4975922;28;20055;-74
2022/07/30 16:25:56;;;;;;;2.72;1.85;;;35.90;41.10;;;;;;4975668;28;20039;-74
2022/07/30 16:28:21;;;;;;;2.53;1.67;;;37.10;40.10;;;;;;4975479;28;20070;-73
2022/07/30 16:30:47;;;;;;;4.18;1.70;;;37.70;39.60;;;;;;4974234;28;20039;-73
2022/07/30 16:33:12;;;;;;;2.72;1.92;;;38.20;37.50;;;;;;4975826;28;20031;-74
2022/07/30 16:35:38;;;;;;;5.13;1.70;;;37.50;37.90;;;;;;4973973;28;20050;-74
2022/07/30 16:38:03;;;;;;;6.32;1.80;;;38.20;38.00;;;;;;4975542;28;20549;-74
2022/07/30 16:40:29;;;;;;;3.20;1.83;;;38.40;37.90;;;;;;4975507;28;20444;-74
2022/07/30 16:42:55;;;;;;;3.30;1.88;;;37.70;38.20;;;;;;4974015;28;20493;-74
2022/07/30 16:45:21;;;;;;;2.63;1.70;;;37.20;39.60;;;;;;4973870;28;20046;-74
2022/07/30 16:47:51;;;;;;;5.15;2.05;;;35.90;40.90;;;;;;4975310;28;20126;-74
2022/07/30 16:50:17;;;;;;;3.47;2.00;;;34.30;42.20;;;;;;4975200;28;20043;-74